Time;durP1;ratioP1;P1;durP2;ratioP2;P2;SDS_P1;SDS_P2;PMS_P1;PMS_P2;Temp;Humidity;BMP_temperature;BMP_pressure;BME280_temperature;BME280_humidity;BME280_pressure;Samples;Min_cycle;Max_cycle;Signal;HPM_P1;HPM_P2
2021/10/28 00:12:12;;;;;;;13.32;9.13;;;10.30;92.90;;;;;;5030758;28;20041;-76
2021/10/28 00:13:22;;;;;;;13.52;9.13;;;10.20;92.90;;;;;;5015959;28;20080;-76
2021/10/28 00:15:38;;;;;;;15.82;10.77;;;10.20;93.00;;;;;;5024100;28;20025;-76
2021/10/28 00:20:34;;;;;;;16.95;10.15;;;10.10;92.90;;;;;;5031430;28;20018;-76
2021/10/28 00:23:01;;;;;;;20.30;10.48;;;10.10;93.00;;;;;;5012287;28;20051;-76
2021/10/28 00:25:28;;;;;;;14.30;9.20;;;10.10;92.90;;;;;;5011589;28;20418;-76
2021/10/28 00:27:54;;;;;;;12.60;8.50;;;10.00;92.90;;;;;;5009710;28;20481;-76
2021/10/28 00:30:20;;;;;;;14.63;9.88;;;10.00;92.90;;;;;;5010373;28;20029;-76
2021/10/28 00:32:46;;;;;;;14.85;9.27;;;10.00;92.90;;;;;;5024900;28;20096;-75
2021/10/28 00:35:13;;;;;;;13.32;9.27;;;10.00;93.00;;;;;;5027507;28;20397;-76
2021/10/28 00:37:39;;;;;;;13.90;8.82;;;10.00;93.00;;;;;;5028538;28;20034;-75
2021/10/28 00:40:09;;;;;;;13.55;9.30;;;10.00;93.00;;;;;;5029498;28;20039;-76
2021/10/28 00:42:36;;;;;;;11.60;8.95;;;10.00;93.00;;;;;;4996110;28;20060;-76
2021/10/28 00:45:05;;;;;;;13.63;8.48;;;10.00;93.00;;;;;;5012654;28;20061;-76
2021/10/28 00:47:34;;;;;;;;;;;10.00;93.00;;;;;;5012679;28;20136;-76
2021/10/28 00:50:01;;;;;;;10.55;8.55;;;9.90;92.90;;;;;;5030505;28;19905;-76
2021/10/28 00:52:26;;;;;;;14.32;7.30;;;9.90;93.00;;;;;;5012127;28;20473;-76
2021/10/28 00:54:53;;;;;;;12.85;7.80;;;9.90;93.00;;;;;;5012907;28;20030;-76
2021/10/28 00:57:18;;;;;;;19.20;8.55;;;9.90;92.90;;;;;;5012741;28;20042;-76
2021/10/28 00:59:45;;;;;;;13.40;8.15;;;9.90;92.90;;;;;;5012675;28;20029;-76
2021/10/28 01:02:11;;;;;;;17.25;8.50;;;9.80;92.90;;;;;;4996148;28;20632;-76
2021/10/28 01:04:37;;;;;;;12.13;7.85;;;9.80;92.90;;;;;;5012513;28;20044;-76
2021/10/28 01:07:04;;;;;;;13.05;7.93;;;9.70;92.90;;;;;;5030113;28;20034;-76
2021/10/28 01:09:30;;;;;;;11.00;7.30;;;9.70;92.90;;;;;;5011607;28;20112;-76
2021/10/28 01:11:57;;;;;;;12.18;7.45;;;9.70;92.90;;;;;;4995864;28;20063;-76
2021/10/28 01:14:23;;;;;;;16.45;9.05;;;9.70;92.90;;;;;;5012148;28;20056;-76
2021/10/28 01:16:54;;;;;;;12.77;7.88;;;9.70;92.90;;;;;;5029791;28;20678;-76
2021/10/28 01:19:22;;;;;;;12.48;8.50;;;9.70;92.90;;;;;;5011831;28;20084;-76
2021/10/28 01:21:48;;;;;;;16.48;8.15;;;9.70;92.80;;;;;;5012065;28;20028;-76
2021/10/28 01:24:14;;;;;;;12.90;7.75;;;9.70;92.80;;;;;;4996015;28;20043;-76
2021/10/28 01:26:40;;;;;;;14.88;7.95;;;9.60;92.80;;;;;;5011446;28;20112;-76
2021/10/28 01:29:06;;;;;;;12.95;8.10;;;9.60;92.80;;;;;;5011700;28;20029;-76
2021/10/28 01:31:34;;;;;;;13.75;7.28;;;9.60;92.90;;;;;;5028170;28;20433;-76
2021/10/28 01:34:02;;;;;;;10.77;7.70;;;9.60;92.90;;;;;;5028292;28;20120;-76
2021/10/28 01:36:28;;;;;;;12.13;7.03;;;9.60;92.90;;;;;;5029285;28;20761;-76
2021/10/28 01:38:55;;;;;;;10.15;7.43;;;9.60;92.90;;;;;;5011898;28;20025;-76
2021/10/28 01:41:21;;;;;;;10.27;7.95;;;9.60;92.90;;;;;;5028878;28;20083;-76
2021/10/28 01:43:47;;;;;;;13.70;8.20;;;9.60;93.00;;;;;;5029827;28;20423;-76
2021/10/28 01:46:13;;;;;;;13.18;7.78;;;9.60;93.00;;;;;;5032649;28;20116;-76
2021/10/28 01:48:41;;;;;;;16.40;7.90;;;9.60;93.10;;;;;;5014609;28;20474;-76
2021/10/28 01:51:08;;;;;;;15.18;8.43;;;9.60;93.10;;;;;;5014762;28;20056;-76
2021/10/28 01:53:42;;;;;;;14.85;8.27;;;9.70;93.40;;;;;;5031036;28;20029;-76
2021/10/28 01:56:09;;;;;;;14.85;7.13;;;9.70;93.20;;;;;;5014241;28;20029;-76
2021/10/28 01:58:35;;;;;;;9.23;6.60;;;9.60;93.10;;;;;;5032353;28;20037;-76
2021/10/28 02:01:02;;;;;;;14.20;8.00;;;9.60;93.10;;;;;;5030850;28;20034;-76
2021/10/28 02:03:28;;;;;;;10.32;7.30;;;9.60;93.10;;;;;;5012897;28;20116;-76
2021/10/28 02:05:55;;;;;;;12.52;8.02;;;9.60;93.00;;;;;;5013560;28;20585;-76
2021/10/28 02:08:21;;;;;;;10.43;6.55;;;9.50;93.00;;;;;;5031683;28;20104;-77
2021/10/28 02:10:47;;;;;;;10.77;6.60;;;9.50;93.00;;;;;;5031506;28;20025;-76
2021/10/28 02:13:13;;;;;;;13.82;6.70;;;9.40;93.30;;;;;;5013106;28;20538;-76
2021/10/28 02:15:40;;;;;;;9.38;6.80;;;9.40;93.00;;;;;;4997359;28;20029;-76
2021/10/28 02:18:06;;;;;;;10.98;6.97;;;9.40;92.90;;;;;;5032212;28;20474;-76
2021/10/28 02:20:32;;;;;;;12.60;7.50;;;9.40;92.90;;;;;;5014955;28;20078;-76
2021/10/28 02:22:58;;;;;;;11.32;7.40;;;9.30;92.90;;;;;;5014642;28;20029;-76
2021/10/28 02:25:24;;;;;;;13.98;9.68;;;9.30;92.90;;;;;;5014896;28;20403;-76
2021/10/28 02:27:50;;;;;;;10.95;8.27;;;9.30;93.00;;;;;;5014323;28;20060;-76
2021/10/28 02:30:16;;;;;;;15.48;11.18;;;9.30;93.00;;;;;;5014683;28;20118;-76
2021/10/28 02:32:43;;;;;;;15.18;10.20;;;9.30;93.10;;;;;;4998032;28;20053;-76
2021/10/28 02:35:09;;;;;;;14.95;8.82;;;9.30;93.10;;;;;;5030890;28;20033;-76
2021/10/28 02:37:35;;;;;;;14.60;9.45;;;9.30;93.20;;;;;;5014851;28;20121;-76
2021/10/28 02:40:00;;;;;;;22.48;10.48;;;9.30;93.20;;;;;;5032275;28;20162;-76
2021/10/28 02:42:26;;;;;;;18.05;10.57;;;9.30;93.50;;;;;;5014584;28;20049;-76
2021/10/28 02:44:52;;;;;;;15.15;8.77;;;9.30;93.20;;;;;;5014511;28;20435;-76
2021/10/28 02:47:18;;;;;;;12.25;9.48;;;9.30;93.20;;;;;;5030603;28;20510;-75
2021/10/28 02:49:44;;;;;;;15.95;9.55;;;9.30;93.10;;;;;;5014017;28;20120;-76
2021/10/28 02:52:10;;;;;;;15.85;9.65;;;9.30;93.20;;;;;;5014308;28;20026;-77
2021/10/28 02:54:37;;;;;;;15.88;9.07;;;9.20;93.10;;;;;;5030676;28;20030;-76
2021/10/28 02:57:03;;;;;;;12.85;9.75;;;9.20;93.10;;;;;;5013732;28;20030;-76
2021/10/28 02:59:29;;;;;;;15.70;8.77;;;9.20;93.10;;;;;;5031555;28;20533;-76
2021/10/28 03:01:55;;;;;;;12.38;7.78;;;9.20;93.10;;;;;;5013566;28;20121;-76
2021/10/28 03:04:23;;;;;;;13.40;8.43;;;9.20;93.00;;;;;;5031157;28;20029;-76
2021/10/28 03:06:49;;;;;;;17.30;9.10;;;9.10;93.00;;;;;;5014223;28;20116;-76
2021/10/28 03:09:21;;;;;;;11.50;8.13;;;9.10;93.00;;;;;;5013597;28;20041;-76
2021/10/28 03:11:49;;;;;;;14.02;8.90;;;9.10;93.30;;;;;;5013584;28;20048;-76
2021/10/28 03:14:19;;;;;;;15.90;9.10;;;9.00;93.00;;;;;;5029902;28;20030;-76
2021/10/28 03:27:25;;;;;;;17.92;11.07;;;8.90;93.10;;;;;;5014435;28;20041;-76
2021/10/28 03:29:51;;;;;;;13.48;9.40;;;8.90;93.10;;;;;;4994345;28;20021;-76
2021/10/28 03:32:18;;;;;;;15.82;10.07;;;8.90;93.10;;;;;;4994609;28;20118;-76
2021/10/28 03:34:45;;;;;;;14.65;9.48;;;8.90;93.10;;;;;;4994815;28;20032;-76
2021/10/28 03:40:17;;;;;;;15.63;10.68;;;8.90;93.10;;;;;;5014249;28;20158;-76
2021/10/28 04:30:10;;;;;;;22.67;13.05;;;8.60;93.30;;;;;;5031019;28;20032;-76
2021/10/28 04:32:36;;;;;;;23.30;12.18;;;8.60;93.40;;;;;;5012976;28;20026;-76
2021/10/28 04:35:02;;;;;;;19.42;10.88;;;8.60;93.40;;;;;;5012892;28;20077;-76
2021/10/28 04:37:28;;;;;;;15.30;10.25;;;8.60;93.50;;;;;;5030371;28;20881;-77
2021/10/28 04:39:54;;;;;;;19.52;11.27;;;8.60;93.50;;;;;;5012603;28;20046;-76
2021/10/28 04:42:20;;;;;;;16.40;11.38;;;8.60;93.50;;;;;;5030600;28;20017;-76
2021/10/28 04:44:46;;;;;;;16.80;10.30;;;8.60;93.50;;;;;;4996707;28;20029;-77
2021/10/28 04:47:11;;;;;;;20.58;11.65;;;8.60;93.50;;;;;;5012387;28;20045;-77
2021/10/28 04:49:37;;;;;;;18.40;11.13;;;8.60;93.80;;;;;;5029466;28;20106;-76
2021/10/28 04:52:03;;;;;;;16.80;11.05;;;8.60;93.50;;;;;;5045634;28;20113;-77
2021/10/28 04:54:29;;;;;;;20.30;10.90;;;8.60;93.60;;;;;;5012651;28;20028;-77
2021/10/28 04:56:55;;;;;;;15.43;9.70;;;8.60;93.60;;;;;;5012260;28;20038;-76
2021/10/28 04:59:20;;;;;;;16.45;10.93;;;8.60;93.90;;;;;;5012522;28;20033;-76
2021/10/28 05:01:46;;;;;;;24.42;12.10;;;8.60;93.60;;;;;;5012313;28;20068;-76
2021/10/28 05:04:12;;;;;;;18.58;10.73;;;8.60;93.60;;;;;;5012458;28;20103;-76
2021/10/28 05:06:37;;;;;;;16.88;10.00;;;8.60;93.60;;;;;;5035792;28;20036;-76
2021/10/28 05:09:04;;;;;;;17.15;10.45;;;8.60;93.60;;;;;;5006102;28;20385;-76
2021/10/28 05:11:30;;;;;;;16.67;11.00;;;8.60;93.60;;;;;;5030049;28;20497;-76
2021/10/28 05:13:56;;;;;;;18.52;10.63;;;8.60;93.60;;;;;;5012603;28;20026;-76
2021/10/28 05:16:21;;;;;;;18.45;10.90;;;8.60;93.60;;;;;;5030580;28;20025;-76
2021/10/28 05:18:47;;;;;;;18.98;11.25;;;8.50;93.60;;;;;;4995048;28;20120;-76
2021/10/28 05:21:14;;;;;;;16.48;11.07;;;8.50;93.60;;;;;;5012058;28;20061;-76
2021/10/28 05:23:40;;;;;;;21.02;11.23;;;8.50;93.60;;;;;;5029803;28;20029;-76
2021/10/28 05:26:08;;;;;;;17.27;10.55;;;8.50;93.50;;;;;;5011673;28;20490;-76
2021/10/28 05:28:34;;;;;;;15.35;10.50;;;8.50;93.50;;;;;;5029595;28;20025;-76
2021/10/28 05:31:01;;;;;;;20.02;11.15;;;8.50;93.60;;;;;;5012249;28;20021;-76
2021/10/28 05:33:27;;;;;;;17.73;10.48;;;8.50;93.60;;;;;;5045054;28;20026;-76
2021/10/28 05:35:52;;;;;;;15.55;9.68;;;8.40;93.60;;;;;;5028083;28;20082;-76
2021/10/28 05:38:18;;;;;;;17.08;11.13;;;8.40;93.60;;;;;;4995878;28;20494;-76
2021/10/28 05:40:44;;;;;;;18.35;10.10;;;8.40;93.60;;;;;;5029853;28;20026;-76
2021/10/28 05:43:10;;;;;;;17.20;10.93;;;8.40;93.60;;;;;;5029470;28;20074;-76
2021/10/28 05:45:37;;;;;;;14.93;10.25;;;8.40;93.60;;;;;;5029436;28;20034;-76
2021/10/28 05:48:04;;;;;;;19.27;10.77;;;8.40;93.60;;;;;;5028974;28;20136;-76
2021/10/28 05:50:32;;;;;;;14.90;10.35;;;8.40;93.70;;;;;;4996517;28;20490;-76
2021/10/28 05:52:59;;;;;;;16.23;9.80;;;8.40;93.70;;;;;;5029541;28;20025;-76
2021/10/28 05:55:26;;;;;;;16.30;10.93;;;8.40;94.00;;;;;;5029265;28;20017;-76
2021/10/28 05:57:53;;;;;;;17.73;9.88;;;8.40;93.70;;;;;;5029651;28;20040;-76
2021/10/28 06:00:20;;;;;;;16.83;9.70;;;8.40;93.70;;;;;;5029445;28;20026;-76
2021/10/28 06:02:45;;;;;;;17.75;10.13;;;8.40;93.70;;;;;;4995689;28;20550;-76
2021/10/28 06:05:12;;;;;;;17.23;10.18;;;8.40;93.70;;;;;;5011490;28;20038;-76
2021/10/28 06:07:39;;;;;;;19.58;10.48;;;8.40;93.70;;;;;;5027663;28;20030;-76
2021/10/28 06:10:06;;;;;;;16.10;10.85;;;8.40;93.70;;;;;;5010694;28;20444;-76
2021/10/28 06:12:36;;;;;;;15.27;10.48;;;8.40;93.70;;;;;;5009728;28;20037;-76
2021/10/28 06:15:03;;;;;;;14.38;9.50;;;8.40;93.70;;;;;;5002670;28;20035;-76
2021/10/28 06:17:34;;;;;;;18.83;10.32;;;8.40;93.70;;;;;;5039103;28;20078;-76
2021/10/28 06:20:01;;;;;;;15.95;9.23;;;8.40;93.70;;;;;;5047955;28;20037;-76
2021/10/28 06:22:27;;;;;;;17.95;10.32;;;8.30;93.70;;;;;;5032771;28;20499;-76
2021/10/28 06:24:54;;;;;;;20.88;11.32;;;8.30;93.70;;;;;;5021401;28;20564;-76
2021/10/28 06:27:20;;;;;;;16.45;10.73;;;8.30;93.70;;;;;;5025060;28;20448;-76
2021/10/28 06:29:46;;;;;;;19.70;11.07;;;8.30;93.70;;;;;;5011314;28;20026;-76
2021/10/28 06:32:13;;;;;;;18.40;9.80;;;8.20;93.70;;;;;;5014758;28;20030;-76
2021/10/28 06:34:42;;;;;;;20.10;10.93;;;8.20;93.70;;;;;;5015431;28;20500;-76
2021/10/28 06:37:08;;;;;;;17.05;9.32;;;8.30;93.80;;;;;;5014825;28;20473;-76
2021/10/28 06:39:34;;;;;;;17.08;10.23;;;8.30;93.80;;;;;;5032527;28;20064;-76
2021/10/28 06:42:00;;;;;;;16.35;9.57;;;8.20;93.80;;;;;;5014322;28;20036;-76
2021/10/28 06:44:25;;;;;;;17.13;10.90;;;8.20;93.70;;;;;;5012097;28;20651;-76
2021/10/28 06:46:51;;;;;;;17.65;10.68;;;8.20;93.70;;;;;;5028447;28;20030;-76
2021/10/28 06:49:19;;;;;;;17.55;10.48;;;8.20;93.80;;;;;;5029493;28;20036;-76
2021/10/28 06:51:44;;;;;;;18.10;10.15;;;8.20;93.80;;;;;;5012472;28;20034;-75
2021/10/28 06:54:18;;;;;;;19.67;10.95;;;8.30;93.80;;;;;;4996767;28;20029;-75
2021/10/28 07:02:34;;;;;;;19.60;10.80;;;8.30;93.70;;;;;;5016890;28;20052;-75
2021/10/28 07:05:02;;;;;;;21.55;10.85;;;8.30;93.70;;;;;;5014527;28;20095;-75
2021/10/28 07:07:32;;;;;;;20.30;11.68;;;8.40;93.80;;;;;;5031902;28;20038;-76
2021/10/28 07:12:38;;;;;;;18.83;11.38;;;8.50;93.90;;;;;;5014561;28;20402;-76
2021/10/28 07:31:31;;;;;;;20.85;12.52;;;9.10;93.60;;;;;;5012294;28;20041;-76
2021/10/28 07:58:32;;;;;;;20.60;10.75;;;10.00;93.10;;;;;;5050420;28;20025;-76
2021/10/28 08:14:41;;;;;;;16.58;9.15;;;10.70;92.70;;;;;;5011258;28;20036;-76
2021/10/28 08:22:35;;;;;;;15.20;8.70;;;11.00;92.50;;;;;;5030394;28;20064;-76
2021/10/28 08:30:28;;;;;;;17.45;9.35;;;11.30;92.20;;;;;;5042289;28;20549;-77
2021/10/28 08:32:55;;;;;;;11.32;8.30;;;11.40;92.10;;;;;;5018549;28;20432;-77
2021/10/28 08:35:21;;;;;;;18.55;9.55;;;11.50;92.00;;;;;;5030778;28;20471;-77
2021/10/28 08:37:51;;;;;;;15.63;8.70;;;11.60;92.00;;;;;;5011737;28;20044;-77
2021/10/28 08:40:17;;;;;;;14.82;9.10;;;11.60;91.80;;;;;;4995464;28;20033;-77
2021/10/28 08:42:46;;;;;;;14.50;9.15;;;11.70;91.70;;;;;;5012305;28;20025;-77
2021/10/28 08:45:19;;;;;;;13.88;8.75;;;11.90;91.70;;;;;;5044021;28;20112;-77
2021/10/28 08:47:49;;;;;;;13.52;8.68;;;12.00;91.60;;;;;;5012806;28;20467;-77
2021/10/28 08:50:43;;;;;;;11.30;8.00;;;12.00;91.40;;;;;;5015567;28;20033;-77
2021/10/28 08:53:21;;;;;;;11.75;8.40;;;12.10;91.30;;;;;;5028851;28;20030;-77
2021/10/28 08:58:42;;;;;;;11.30;7.60;;;12.30;91.20;;;;;;5013032;28;20061;-77
2021/10/28 09:24:21;;;;;;;10.13;7.40;;;13.00;90.50;;;;;;5029847;28;20097;-77
2021/10/28 09:27:04;;;;;;;12.82;7.20;;;13.10;90.40;;;;;;5028867;28;20393;-77
2021/10/28 09:29:52;;;;;;;12.43;7.45;;;13.20;90.30;;;;;;5030240;28;20060;-78
2021/10/28 09:32:27;;;;;;;8.55;6.18;;;13.30;90.30;;;;;;5042122;28;20022;-78
2021/10/28 09:51:13;;;;;;;8.85;6.50;;;13.80;89.20;;;;;;5032927;28;20029;-78
2021/10/28 09:54:39;;;;;;;8.18;6.15;;;13.90;88.80;;;;;;5015481;28;20033;-78
2021/10/28 09:59:49;;;;;;;7.65;5.90;;;14.10;87.30;;;;;;5032067;28;20047;-77
2021/10/28 10:02:37;;;;;;;9.15;5.85;;;14.20;87.20;;;;;;5009461;28;20033;-77
2021/10/28 10:05:06;;;;;;;8.55;5.47;;;14.30;86.70;;;;;;5028527;28;20496;-77
2021/10/28 10:07:33;;;;;;;7.50;5.97;;;14.40;86.80;;;;;;5014211;28;20459;-77
2021/10/28 10:09:58;;;;;;;8.50;5.88;;;14.50;86.70;;;;;;4997867;28;20658;-76
2021/10/28 10:12:24;;;;;;;11.30;5.63;;;14.60;86.30;;;;;;4998674;28;20029;-77
2021/10/28 10:14:50;;;;;;;9.80;5.28;;;14.70;85.90;;;;;;5015026;28;20030;-78
2021/10/28 10:17:18;;;;;;;8.70;5.47;;;14.80;85.50;;;;;;5033022;28;20546;-78
2021/10/28 10:19:47;;;;;;;7.13;5.18;;;14.80;85.10;;;;;;5015461;28;20029;-78
2021/10/28 10:22:46;;;;;;;8.48;4.95;;;14.90;84.90;;;;;;5015318;28;20094;-78
2021/10/28 10:25:33;;;;;;;8.63;5.30;;;15.00;84.60;;;;;;5031556;28;20480;-78
2021/10/28 11:24:17;;;;;;;10.77;5.53;;;16.50;76.60;;;;;;5052752;28;20029;-78
2021/10/28 12:47:30;;;;;;;6.53;4.22;;;17.80;75.10;;;;;;5030885;28;20049;-78
2021/10/28 15:39:47;;;;;;;4.40;2.50;;;16.00;78.00;;;;;;5030816;28;20034;-83
2021/10/28 15:48:40;;;;;;;6.70;2.28;;;15.80;78.80;;;;;;5029592;28;20552;-84
2021/10/28 16:23:25;;;;;;;2.65;2.42;;;15.20;80.40;;;;;;5023873;28;20057;-82
2021/10/28 16:25:51;;;;;;;4.40;2.65;;;15.20;80.60;;;;;;5026084;28;20029;-87
2021/10/28 16:28:17;;;;;;;5.20;2.72;;;15.10;80.80;;;;;;5014942;28;20478;-86
2021/10/28 16:30:45;;;;;;;5.53;2.65;;;15.10;81.00;;;;;;5033987;28;20021;-87
2021/10/28 16:33:13;;;;;;;4.30;2.97;;;15.00;81.10;;;;;;5016688;28;20026;-88
2021/10/28 16:35:38;;;;;;;6.03;3.22;;;14.90;81.10;;;;;;5013124;28;20034;-82
2021/10/28 16:38:05;;;;;;;7.13;3.22;;;14.90;81.10;;;;;;5013682;28;20605;-83
2021/10/28 16:40:30;;;;;;;3.53;2.75;;;14.90;81.10;;;;;;5013665;28;20053;-83
2021/10/28 16:42:56;;;;;;;7.38;3.22;;;14.80;81.10;;;;;;5031242;28;20108;-82
2021/10/28 16:45:22;;;;;;;5.40;2.90;;;14.80;81.20;;;;;;5002312;28;20085;-83
2021/10/28 16:47:47;;;;;;;3.78;2.63;;;14.80;81.20;;;;;;5012627;28;20463;-85
2021/10/28 16:50:14;;;;;;;5.70;2.83;;;14.70;81.30;;;;;;5029345;28;20033;-83
2021/10/28 16:52:40;;;;;;;5.65;3.13;;;14.70;81.40;;;;;;5029607;28;20397;-82
2021/10/28 16:55:07;;;;;;;4.43;2.88;;;14.60;81.40;;;;;;5011098;28;20030;-81
2021/10/28 16:57:32;;;;;;;4.38;2.60;;;14.60;81.40;;;;;;5010119;28;20054;-81
2021/10/28 16:59:58;;;;;;;6.10;3.10;;;14.60;81.50;;;;;;5009742;28;20433;-83
2021/10/28 17:02:24;;;;;;;4.50;3.25;;;14.50;81.60;;;;;;5011043;28;20026;-83
2021/10/28 17:04:49;;;;;;;5.53;3.15;;;14.50;81.80;;;;;;5011041;28;20026;-83
2021/10/28 17:07:15;;;;;;;6.57;3.10;;;14.40;81.80;;;;;;5009538;28;20414;-83
2021/10/28 17:09:40;;;;;;;5.38;3.15;;;14.40;81.80;;;;;;5009487;28;20062;-83
2021/10/28 17:12:07;;;;;;;5.72;3.10;;;14.40;82.00;;;;;;5010663;28;20599;-82
2021/10/28 17:14:33;;;;;;;4.63;3.40;;;14.30;82.00;;;;;;5009459;28;20065;-82
2021/10/28 17:16:58;;;;;;;5.38;3.65;;;14.30;82.20;;;;;;5010812;28;20026;-82
2021/10/28 17:19:24;;;;;;;5.95;3.65;;;14.30;82.40;;;;;;5009686;28;20034;-82
2021/10/28 17:21:50;;;;;;;7.13;3.30;;;14.20;82.30;;;;;;5010668;28;20041;-83
2021/10/28 17:24:27;;;;;;;7.78;3.33;;;14.20;82.40;;;;;;5009050;28;20040;-82
2021/10/28 17:26:53;;;;;;;5.93;3.42;;;14.20;82.30;;;;;;5009461;28;20018;-82
2021/10/28 17:29:19;;;;;;;5.25;2.97;;;14.10;82.30;;;;;;5009317;28;20083;-82
2021/10/28 17:31:44;;;;;;;6.13;3.40;;;14.10;82.30;;;;;;5009530;28;20026;-81
2021/10/28 17:34:10;;;;;;;4.78;3.10;;;14.10;82.40;;;;;;5010683;28;20075;-81
2021/10/28 17:36:36;;;;;;;7.47;3.15;;;14.10;82.40;;;;;;5010649;28;20034;-83
2021/10/28 17:39:04;;;;;;;6.47;3.30;;;14.10;82.60;;;;;;5009289;28;20030;-84
2021/10/28 17:41:30;;;;;;;5.53;3.72;;;14.10;82.60;;;;;;5009680;28;20117;-82
2021/10/28 17:43:57;;;;;;;4.45;2.83;;;14.00;82.60;;;;;;5025409;28;20117;-82
2021/10/28 17:46:27;;;;;;;5.72;3.08;;;14.00;82.70;;;;;;5009392;28;20033;-82
2021/10/28 17:48:53;;;;;;;7.07;3.05;;;13.90;82.70;;;;;;5009023;28;20052;-83
2021/10/28 17:51:21;;;;;;;5.93;3.78;;;13.90;82.90;;;;;;5008851;28;20501;-82
2021/10/28 17:53:47;;;;;;;4.85;3.67;;;13.80;83.00;;;;;;5010438;28;20014;-82
2021/10/28 17:56:14;;;;;;;6.80;4.28;;;13.80;83.10;;;;;;4991100;28;20064;-82
2021/10/28 17:58:40;;;;;;;6.22;4.10;;;13.80;83.20;;;;;;5006979;28;20045;-82
2021/10/28 18:01:06;;;;;;;6.97;4.13;;;13.80;83.80;;;;;;5006018;28;20414;-83
2021/10/28 18:03:32;;;;;;;7.25;4.20;;;13.80;83.30;;;;;;4989218;28;20030;-80
2021/10/28 18:05:59;;;;;;;5.97;3.90;;;13.70;83.40;;;;;;5006234;28;20034;-83
2021/10/28 18:08:25;;;;;;;7.28;4.28;;;13.80;83.50;;;;;;5007568;28;20083;-83
2021/10/28 18:10:50;;;;;;;7.63;4.38;;;13.70;83.40;;;;;;5009580;28;20026;-83
2021/10/28 18:13:18;;;;;;;7.75;5.20;;;13.70;83.40;;;;;;5008695;28;20136;-84
2021/10/28 18:15:44;;;;;;;8.18;4.72;;;13.70;83.30;;;;;;5008479;28;20030;-83
2021/10/28 18:18:10;;;;;;;7.63;4.45;;;13.70;83.10;;;;;;5009981;28;20101;-84
2021/10/28 18:20:37;;;;;;;8.80;4.32;;;13.70;83.00;;;;;;5008720;28;20530;-83
2021/10/28 18:23:04;;;;;;;9.27;4.97;;;13.70;83.00;;;;;;5008507;28;20486;-83
2021/10/28 18:25:30;;;;;;;9.35;4.55;;;13.70;83.00;;;;;;5009648;28;20419;-82
2021/10/28 18:27:56;;;;;;;8.50;4.47;;;13.70;83.10;;;;;;5013173;28;20535;-82
2021/10/28 18:30:25;;;;;;;6.50;3.95;;;13.60;83.20;;;;;;5011610;28;20034;-83
2021/10/28 18:32:52;;;;;;;7.93;3.90;;;13.60;83.40;;;;;;5012882;28;20363;-84
2021/10/28 18:35:18;;;;;;;6.03;4.22;;;13.50;83.60;;;;;;5010745;28;20026;-82
2021/10/28 18:37:46;;;;;;;6.53;3.70;;;13.50;83.80;;;;;;5008755;28;20491;-84
2021/10/28 18:40:12;;;;;;;5.03;3.30;;;13.40;83.90;;;;;;5010397;28;20090;-83
2021/10/28 18:42:38;;;;;;;5.28;3.55;;;13.30;84.00;;;;;;5028339;28;20030;-83
2021/10/28 18:45:06;;;;;;;7.60;3.88;;;13.30;84.10;;;;;;5013454;28;20377;-83
2021/10/28 18:47:33;;;;;;;6.80;3.00;;;13.30;84.30;;;;;;5011990;28;20125;-84
2021/10/28 18:49:59;;;;;;;6.18;3.40;;;13.20;84.40;;;;;;5011898;28;20030;-83
2021/10/28 18:52:25;;;;;;;5.93;3.72;;;13.20;84.50;;;;;;5012996;28;20036;-82
2021/10/28 18:54:51;;;;;;;6.60;3.45;;;13.10;84.60;;;;;;5011265;28;20482;-85
2021/10/28 18:57:18;;;;;;;5.22;3.28;;;13.10;84.80;;;;;;5011045;28;20084;-82
2021/10/28 18:59:44;;;;;;;7.05;3.35;;;13.00;84.90;;;;;;5031204;28;20032;-82
2021/10/28 19:02:10;;;;;;;5.00;3.85;;;13.00;85.00;;;;;;5031365;28;20434;-81
2021/10/28 19:04:37;;;;;;;9.02;4.10;;;12.90;85.10;;;;;;5032788;28;20074;-82
2021/10/28 19:07:03;;;;;;;7.38;3.75;;;12.90;85.20;;;;;;5026663;28;20498;-81
2021/10/28 19:09:29;;;;;;;9.98;4.55;;;12.90;85.50;;;;;;5010912;28;20041;-82
2021/10/28 19:11:55;;;;;;;6.53;4.10;;;12.90;85.70;;;;;;5012232;28;20049;-82
2021/10/28 19:14:21;;;;;;;6.07;3.95;;;12.90;85.50;;;;;;5012277;28;20478;-82
2021/10/28 19:16:46;;;;;;;8.50;4.43;;;12.80;85.50;;;;;;4993104;28;20030;-81
2021/10/28 19:19:12;;;;;;;8.65;4.65;;;12.80;85.70;;;;;;5011327;28;20478;-82
2021/10/28 19:21:38;;;;;;;6.57;4.43;;;12.80;85.60;;;;;;5011815;28;20022;-83
2021/10/28 19:24:04;;;;;;;5.20;4.30;;;12.70;85.60;;;;;;5013144;28;20036;-82
2021/10/28 19:26:30;;;;;;;6.50;4.63;;;12.70;85.70;;;;;;5011459;28;20042;-80
2021/10/28 19:28:57;;;;;;;9.55;4.70;;;12.70;85.80;;;;;;4979584;28;20037;-80
2021/10/28 19:31:26;;;;;;;10.25;4.88;;;12.70;85.80;;;;;;5007653;28;20022;-80
2021/10/28 19:33:58;;;;;;;;;;;12.60;85.80;;;;;;5017053;28;20037;-81
2021/10/28 19:47:06;;;;;;;6.60;4.95;;;12.40;87.00;;;;;;5028982;28;20502;-83
2021/10/28 19:49:32;;;;;;;13.18;5.85;;;12.40;86.50;;;;;;5051082;27;20029;-83
2021/10/28 19:52:01;;;;;;;9.75;5.72;;;12.30;86.50;;;;;;5021268;28;20034;-81
2021/10/28 19:54:27;;;;;;;11.57;6.80;;;12.30;86.60;;;;;;5028421;28;20155;-84
2021/10/28 19:56:53;;;;;;;11.05;6.90;;;12.30;86.60;;;;;;5013141;28;20471;-82
2021/10/28 19:59:19;;;;;;;11.05;6.78;;;12.30;86.80;;;;;;5008541;28;20030;-82
2021/10/28 20:01:51;;;;;;;10.07;7.05;;;12.20;86.90;;;;;;5003426;28;20041;-83
2021/10/28 20:20:21;;;;;;;15.00;9.23;;;12.00;87.50;;;;;;5042054;28;20077;-83
2021/10/28 20:22:49;;;;;;;14.43;9.95;;;12.00;87.60;;;;;;5051010;28;20029;-81
2021/10/28 20:25:18;;;;;;;14.38;9.57;;;12.00;88.40;;;;;;5051380;28;20021;-81
2021/10/28 20:27:50;;;;;;;14.15;10.02;;;11.90;87.90;;;;;;5032968;28;20078;-82
2021/10/28 20:30:19;;;;;;;15.27;9.88;;;11.90;88.00;;;;;;5031340;28;20807;-81
2021/10/28 20:32:45;;;;;;;16.52;10.13;;;11.90;88.10;;;;;;5031153;28;20061;-82
2021/10/28 20:35:26;;;;;;;17.73;9.82;;;11.90;88.20;;;;;;5013587;28;20049;-82
2021/10/28 20:37:53;;;;;;;17.58;10.18;;;11.80;88.30;;;;;;5030618;28;20505;-82
2021/10/28 20:40:20;;;;;;;15.85;10.30;;;11.80;88.30;;;;;;5030175;28;20026;-81
2021/10/28 20:42:49;;;;;;;15.55;10.10;;;11.80;88.40;;;;;;5012810;28;20061;-83
2021/10/28 20:45:26;;;;;;;16.52;11.18;;;11.80;88.50;;;;;;5029565;28;20040;-81
2021/10/28 20:47:53;;;;;;;15.52;10.77;;;11.70;88.60;;;;;;5013039;28;20405;-82
2021/10/28 20:50:22;;;;;;;17.65;10.77;;;11.70;88.60;;;;;;4996956;28;20033;-81
2021/10/28 20:52:48;;;;;;;15.30;11.05;;;11.70;88.70;;;;;;5031025;28;20108;-82
2021/10/28 20:55:14;;;;;;;17.98;11.40;;;11.70;88.80;;;;;;5012938;28;20094;-82
2021/10/28 20:57:40;;;;;;;23.35;11.23;;;11.70;88.90;;;;;;5030787;28;20061;-83
2021/10/28 21:00:13;;;;;;;22.63;12.43;;;11.60;89.00;;;;;;4996826;28;20069;-83
2021/10/28 21:02:39;;;;;;;19.20;11.35;;;11.60;89.00;;;;;;5013357;28;20027;-83
2021/10/28 21:05:12;;;;;;;20.92;11.63;;;11.50;89.20;;;;;;4997870;28;20029;-83
2021/10/28 21:07:42;;;;;;;17.30;11.50;;;11.50;89.30;;;;;;5030560;28;20075;-83
2021/10/28 21:10:09;;;;;;;22.48;12.60;;;11.50;89.40;;;;;;4997244;28;20849;-83
2021/10/28 21:12:35;;;;;;;17.00;11.38;;;11.50;89.40;;;;;;5030965;28;20030;-84
2021/10/28 21:15:02;;;;;;;20.13;11.93;;;11.50;89.50;;;;;;5011438;28;20094;-84
2021/10/28 21:17:27;;;;;;;23.88;12.20;;;11.50;89.50;;;;;;5010350;28;20034;-84
2021/10/28 21:19:53;;;;;;;22.58;12.13;;;11.40;89.50;;;;;;5011107;28;20041;-83
2021/10/28 21:22:19;;;;;;;21.98;12.40;;;11.50;89.50;;;;;;4993476;28;20071;-84
2021/10/28 21:24:48;;;;;;;19.77;12.27;;;11.40;89.50;;;;;;4998432;28;20038;-84
2021/10/28 21:27:14;;;;;;;19.15;12.70;;;11.50;89.60;;;;;;4992425;28;20038;-84
2021/10/28 21:29:40;;;;;;;18.45;13.30;;;11.40;89.60;;;;;;5009959;28;20558;-84
2021/10/28 21:32:09;;;;;;;17.27;12.82;;;11.40;89.70;;;;;;5009058;28;20521;-84
2021/10/28 21:34:36;;;;;;;18.40;12.35;;;11.30;89.80;;;;;;5025521;28;20030;-83
2021/10/28 21:37:04;;;;;;;22.02;12.52;;;11.30;89.90;;;;;;5009151;28;20402;-82
2021/10/28 21:39:29;;;;;;;19.42;12.32;;;11.30;90.00;;;;;;5048020;28;20025;-83
2021/10/28 21:41:55;;;;;;;20.17;12.80;;;11.30;90.00;;;;;;5014006;28;20037;-82
2021/10/28 21:44:21;;;;;;;18.08;12.40;;;11.30;90.00;;;;;;5027614;28;20026;-82
2021/10/28 21:46:48;;;;;;;24.48;13.48;;;11.30;90.00;;;;;;5014277;28;20518;-83
2021/10/28 21:49:15;;;;;;;19.23;13.45;;;11.20;90.00;;;;;;5030038;28;20046;-83
2021/10/28 21:51:43;;;;;;;23.75;12.43;;;11.20;90.10;;;;;;5012508;28;20030;-82
2021/10/28 21:54:26;;;;;;;22.92;12.35;;;11.20;90.10;;;;;;5012542;28;20447;-78
2021/10/28 21:56:55;;;;;;;18.13;12.63;;;11.20;90.20;;;;;;5025561;28;20032;-77
2021/10/28 22:02:57;;;;;;;19.58;13.00;;;11.20;90.20;;;;;;4997341;28;20046;-76
2021/10/28 22:27:12;;;;;;;21.38;13.18;;;11.00;90.40;;;;;;5035932;28;20045;-77
2021/10/28 22:29:38;;;;;;;20.48;13.00;;;11.00;90.40;;;;;;5047363;28;20170;-77
2021/10/28 22:32:06;;;;;;;21.17;13.60;;;11.00;90.40;;;;;;5046104;28;20061;-76